createdAt,value
2022-11-01T00:01:56.830Z,34.08
2022-11-01T00:04:24.285Z,29.75
2022-11-01T00:06:51.322Z,20.52
2022-11-01T00:09:18.567Z,29.45
2022-11-01T00:11:45.307Z,24.55
2022-11-01T00:14:14.003Z,29.83
2022-11-01T00:16:41.353Z,22.98
2022-11-01T00:19:08.493Z,28.17
2022-11-01T00:21:35.178Z,31.70
2022-11-01T00:24:01.963Z,33.75
2022-11-01T00:26:29.150Z,23.05
2022-11-01T00:28:55.810Z,26.40
2022-11-01T00:31:22.544Z,29.70
2022-11-01T00:33:49.340Z,27.23
2022-11-01T00:36:18.737Z,26.45
2022-11-01T00:38:48.967Z,29.02
2022-11-01T00:41:21.525Z,26.92
2022-11-01T00:43:48.984Z,29.38
2022-11-01T00:46:16.334Z,24.23
2022-11-01T00:48:43.087Z,25.38
2022-11-01T00:51:09.832Z,22.58
2022-11-01T00:53:36.710Z,19.88
2022-11-01T00:56:05.563Z,22.00
2022-11-01T00:58:32.763Z,41.38
2022-11-01T01:00:59.788Z,27.02
2022-11-01T01:03:26.585Z,27.85
2022-11-01T01:05:54.255Z,26.70
2022-11-01T01:08:21.636Z,17.33
2022-11-01T01:10:48.464Z,22.75
2022-11-01T01:13:15.414Z,21.77
2022-11-01T01:15:42.774Z,21.83
2022-11-01T01:18:09.824Z,28.05
2022-11-01T01:20:36.552Z,27.33
2022-11-01T01:23:03.573Z,20.90
2022-11-01T01:25:30.297Z,19.60
2022-11-01T01:27:57.112Z,21.30
2022-11-01T01:30:24.209Z,19.50
2022-11-01T01:32:50.996Z,18.45
2022-11-01T01:35:17.769Z,22.02
2022-11-01T01:37:44.375Z,18.83
2022-11-01T01:40:11.422Z,17.65
2022-11-01T01:42:40.624Z,34.15
2022-11-01T01:45:31.397Z,20.63
2022-11-01T01:48:12.793Z,25.08
2022-11-01T01:51:15.086Z,18.80
2022-11-01T01:53:47.335Z,42.58
2022-11-01T01:56:23.967Z,20.23
2022-11-01T01:58:55.612Z,19.73
2022-11-01T02:01:22.436Z,15.05
2022-11-01T02:03:49.840Z,19.13
2022-11-01T02:06:21.911Z,22.25
2022-11-01T02:09:00.597Z,15.95
2022-11-01T02:11:27.268Z,18.88
2022-11-01T02:13:54.182Z,19.92
2022-11-01T02:16:32.946Z,18.27
2022-11-01T02:19:24.489Z,25.40
2022-11-01T02:22:21.609Z,18.67
2022-11-01T02:24:51.300Z,21.15
2022-11-01T02:27:42.420Z,21.88
2022-11-01T02:30:14.392Z,14.88
2022-11-01T02:32:56.363Z,13.90
2022-11-01T02:35:41.739Z,14.10
2022-11-01T02:38:42.563Z,14.77
2022-11-01T02:41:19.957Z,19.52
2022-11-01T02:43:59.151Z,19.23
2022-11-01T02:46:46.293Z,12.90
2022-11-01T02:49:16.117Z,17.63
2022-11-01T02:51:44.497Z,16.30
2022-11-01T02:54:22.428Z,12.07
2022-11-01T02:56:51.125Z,17.90
2022-11-01T02:59:26.442Z,15.05
2022-11-01T03:02:05.404Z,22.58
2022-11-01T03:04:32.550Z,20.70
2022-11-01T03:07:03.738Z,11.77
2022-11-01T03:09:32.257Z,12.75
2022-11-01T03:12:12.612Z,18.13
2022-11-01T03:14:39.307Z,13.25
2022-11-01T03:17:13.254Z,15.82
2022-11-01T03:20:04.812Z,14.82
2022-11-01T03:22:39.450Z,13.73
2022-11-01T03:25:31.763Z,22.17
2022-11-01T03:28:01.457Z,17.88
2022-11-01T03:30:31.612Z,16.02
2022-11-01T03:32:58.689Z,13.07
2022-11-01T03:35:30.804Z,17.98
2022-11-01T03:38:02.662Z,21.58
2022-11-01T03:40:31.093Z,12.15
2022-11-01T03:43:05.230Z,13.93
2022-11-01T03:45:35.526Z,18.42
2022-11-01T03:48:02.845Z,15.98
2022-11-01T03:50:29.866Z,19.50
2022-11-01T03:52:57.168Z,14.77
2022-11-01T03:55:24.351Z,12.15
2022-11-01T03:58:00.056Z,18.10
2022-11-01T04:00:29.015Z,19.55
2022-11-01T04:02:57.057Z,15.82
2022-11-01T04:05:25.710Z,20.15
2022-11-01T04:07:53.215Z,17.92
2022-11-01T04:10:20.749Z,14.13
2022-11-01T04:12:49.361Z,14.80
2022-11-01T04:15:36.008Z,11.55
2022-11-01T04:18:34.274Z,14.05
2022-11-01T04:21:22.076Z,12.32
2022-11-01T04:23:49.116Z,11.02
2022-11-01T04:26:22.104Z,10.40
2022-11-01T04:28:57.254Z,14.15
2022-11-01T04:31:25.327Z,16.83
2022-11-01T04:33:52.181Z,9.93
2022-11-01T04:36:18.947Z,19.42
2022-11-01T04:38:48.706Z,13.05
2022-11-01T04:41:17.825Z,11.02
2022-11-01T04:43:45.592Z,13.63
2022-11-01T04:46:12.224Z,19.05
2022-11-01T04:48:39.330Z,14.57
2022-11-01T04:51:06.266Z,14.20
2022-11-01T04:53:32.921Z,12.10
2022-11-01T04:56:01.071Z,11.98
2022-11-01T04:58:27.739Z,14.10
2022-11-01T05:00:54.433Z,11.43
2022-11-01T05:03:21.550Z,16.67
2022-11-01T05:05:48.207Z,14.48
2022-11-01T05:08:14.968Z,10.70
2022-11-01T05:10:44.683Z,9.73
2022-11-01T05:13:13.390Z,10.07
2022-11-01T05:15:53.503Z,11.43
2022-11-01T05:18:27.074Z,9.07
2022-11-01T05:20:53.798Z,10.75
2022-11-01T05:23:20.461Z,10.40
2022-11-01T05:25:47.291Z,8.27
2022-11-01T05:28:14.732Z,7.45
2022-11-01T05:30:42.438Z,7.53
2022-11-01T05:33:10.977Z,11.57
2022-11-01T05:35:37.889Z,10.15
2022-11-01T05:38:05.596Z,10.70
2022-11-01T05:40:33.222Z,11.05
2022-11-01T05:43:00.249Z,13.25
2022-11-01T05:45:27.473Z,14.98
2022-11-01T05:47:54.158Z,14.68
2022-11-01T05:50:21.450Z,11.65
2022-11-01T05:52:50.056Z,15.57
2022-11-01T05:55:16.764Z,12.73
2022-11-01T05:57:43.516Z,10.18
2022-11-01T06:00:10.974Z,12.65
2022-11-01T06:02:37.880Z,16.13
2022-11-01T06:05:04.823Z,11.15
2022-11-01T06:07:31.531Z,13.80
2022-11-01T06:09:58.188Z,8.50
2022-11-01T06:12:25.689Z,10.40
2022-11-01T06:14:52.522Z,9.25
2022-11-01T06:17:19.579Z,4.50
2022-11-01T06:19:46.230Z,3.00
2022-11-01T06:22:13.017Z,3.92
2022-11-01T06:24:39.797Z,2.55
2022-11-01T06:27:11.473Z,2.13
2022-11-01T06:29:39.413Z,1.73
2022-11-01T06:32:06.690Z,3.13
2022-11-01T06:34:33.470Z,1.23
2022-11-01T06:37:00.772Z,2.40
2022-11-01T06:39:27.594Z,2.33
2022-11-01T06:41:54.576Z,2.45
2022-11-01T06:44:21.652Z,1.75
2022-11-01T06:46:48.371Z,1.85
2022-11-01T06:49:18.149Z,1.38
2022-11-01T06:51:46.065Z,2.58
2022-11-01T06:54:12.724Z,1.48
2022-11-01T06:56:39.380Z,1.00
2022-11-01T06:59:06.509Z,2.13
2022-11-01T07:01:33.771Z,2.03
2022-11-01T07:04:01.225Z,1.85
2022-11-01T07:06:31.109Z,2.35
2022-11-01T07:09:01.520Z,1.90
2022-11-01T07:11:31.509Z,3.35
2022-11-01T07:13:59.510Z,1.92
2022-11-01T07:16:26.885Z,1.33
2022-11-01T07:18:53.922Z,2.05
2022-11-01T07:21:20.691Z,1.73
2022-11-01T07:23:47.396Z,2.15
2022-11-01T07:26:14.083Z,3.30
2022-11-01T07:28:41.491Z,5.43
2022-11-01T07:31:08.249Z,4.90
2022-11-01T07:33:35.205Z,5.10
2022-11-01T07:36:02.894Z,2.83
2022-11-01T07:38:29.581Z,3.47
2022-11-01T07:40:56.409Z,3.33
2022-11-01T07:43:23.587Z,1.77
2022-11-01T07:45:50.773Z,2.00
2022-11-01T07:48:19.267Z,3.40
2022-11-01T07:50:47.432Z,3.95
2022-11-01T07:53:19.262Z,3.97
2022-11-01T07:55:47.011Z,3.95
2022-11-01T07:58:14.881Z,5.32
2022-11-01T08:00:42.938Z,4.55
2022-11-01T08:03:19.851Z,2.92
2022-11-01T08:05:48.425Z,5.22
2022-11-01T08:08:16.313Z,2.55
2022-11-01T08:10:43.452Z,2.55
2022-11-01T08:13:21.878Z,2.15
2022-11-01T08:15:50.197Z,3.15
2022-11-01T08:18:18.370Z,1.90
2022-11-01T08:20:45.098Z,2.53
2022-11-01T08:23:11.937Z,2.45
2022-11-01T08:25:39.165Z,3.22
2022-11-01T08:28:17.818Z,4.53
2022-11-01T08:30:46.719Z,3.90
2022-11-01T08:33:13.451Z,3.35
2022-11-01T08:35:41.850Z,2.28
2022-11-01T08:38:10.794Z,4.10
2022-11-01T08:40:37.506Z,1.83
2022-11-01T08:43:06.066Z,2.67
2022-11-01T08:50:55.886Z,2.72
2022-11-01T08:56:12.560Z,4.57
2022-11-01T08:58:42.416Z,3.13
2022-11-01T09:20:11.810Z,3.70
2022-11-01T09:22:39.785Z,2.97
2022-11-01T09:25:08.858Z,3.03
2022-11-01T09:27:35.880Z,2.58
2022-11-01T09:30:06.977Z,2.50
2022-11-01T09:32:38.007Z,2.33
2022-11-01T09:35:06.905Z,3.33
2022-11-01T09:37:35.430Z,2.47
2022-11-01T09:40:06.439Z,2.67
2022-11-01T09:42:40.245Z,1.75
2022-11-01T09:48:17.308Z,27.27
2022-11-01T09:50:46.759Z,2.50
2022-11-01T09:53:25.806Z,1.77
2022-11-01T10:22:34.099Z,1.70
2022-11-01T10:54:31.153Z,2.75
2022-11-01T11:08:09.153Z,3.00
2022-11-01T11:19:23.541Z,6.30
2022-11-01T11:24:39.333Z,3.53
2022-11-01T11:30:09.029Z,2.60
2022-11-01T11:32:49.560Z,2.10
2022-11-01T11:35:26.545Z,1.63
2022-11-01T11:37:57.461Z,4.15
2022-11-01T11:40:27.049Z,1.77
2022-11-01T11:42:58.199Z,1.67
2022-11-01T11:54:11.699Z,2.47
2022-11-01T11:56:38.722Z,2.00
2022-11-01T11:59:17.065Z,1.83
2022-11-01T12:01:43.941Z,2.67
2022-11-01T12:04:16.355Z,1.15
2022-11-01T12:06:46.872Z,2.00
2022-11-01T12:09:35.566Z,3.35
2022-11-01T12:12:15.383Z,0.70
2022-11-01T12:14:42.341Z,1.00
2022-11-01T12:17:33.704Z,0.95
2022-11-01T12:20:12.938Z,1.23
2022-11-01T12:22:44.079Z,2.25
2022-11-01T12:25:21.464Z,2.20
2022-11-01T12:28:20.258Z,1.42
2022-11-01T12:30:51.220Z,1.23
2022-11-01T12:33:34.123Z,1.33
2022-11-01T12:36:01.276Z,2.92
2022-11-01T12:39:01.116Z,9.23
2022-11-01T12:41:53.757Z,1.55
2022-11-01T12:44:32.758Z,1.75
2022-11-01T12:47:11.086Z,1.58
2022-11-01T12:49:41.910Z,2.15
2022-11-01T12:52:28.178Z,1.10
2022-11-01T12:55:16.516Z,1.88
2022-11-01T12:57:46.494Z,1.77
2022-11-01T13:00:15.884Z,1.48
2022-11-01T13:03:23.460Z,2.65
2022-11-01T13:06:16.101Z,1.73
2022-11-01T13:09:17.161Z,3.22
2022-11-01T13:12:08.532Z,2.60
2022-11-01T13:14:44.832Z,3.10
2022-11-01T13:17:30.345Z,3.15
2022-11-01T13:20:25.717Z,2.03
2022-11-01T13:23:16.819Z,3.25
2022-11-01T13:25:43.604Z,3.72
2022-11-01T13:28:28.512Z,3.05
2022-11-01T13:31:17.358Z,2.58
2022-11-01T13:33:57.562Z,3.97
2022-11-01T13:36:46.595Z,3.45
2022-11-01T13:39:29.752Z,3.15
2022-11-01T13:42:03.108Z,4.80
2022-11-01T13:44:34.924Z,3.38
2022-11-01T13:47:32.759Z,4.38
2022-11-01T13:50:28.721Z,3.78
2022-11-01T13:53:03.383Z,4.78
2022-11-01T13:55:48.611Z,2.67
2022-11-01T13:58:20.095Z,7.15
2022-11-01T14:00:51.833Z,4.25
2022-11-01T14:03:29.918Z,3.65
2022-11-01T14:06:19.972Z,5.05
2022-11-01T14:08:48.501Z,5.55
2022-11-01T14:11:45.117Z,4.50
2022-11-01T14:14:30.071Z,7.78
2022-11-01T14:17:30.269Z,4.82
2022-11-01T14:19:56.869Z,3.92
2022-11-01T14:22:26.228Z,3.67
2022-11-01T14:25:23.074Z,4.78
2022-11-01T14:28:34.906Z,5.22
2022-11-01T14:31:01.918Z,5.10
2022-11-01T14:33:28.635Z,5.70
2022-11-01T14:35:58.776Z,9.63
2022-11-01T14:38:45.229Z,7.90
2022-11-01T14:41:14.408Z,4.38
2022-11-01T14:43:48.387Z,8.35
2022-11-01T14:46:27.863Z,8.27
2022-11-01T14:49:06.308Z,6.70
2022-11-01T14:51:40.031Z,7.22
2022-11-01T14:54:06.625Z,9.02
2022-11-01T14:56:40.708Z,6.13
2022-11-01T14:59:33.900Z,6.38
2022-11-01T15:02:06.590Z,8.77
2022-11-01T15:04:42.528Z,6.35
2022-11-01T15:07:23.692Z,10.25
2022-11-01T15:10:10.019Z,7.82
2022-11-01T15:12:50.272Z,6.93
2022-11-01T15:15:21.375Z,5.53
2022-11-01T15:18:01.217Z,5.95
2022-11-01T15:20:44.115Z,6.22
2022-11-01T15:23:18.316Z,6.32
2022-11-01T15:26:01.563Z,7.63
2022-11-01T15:28:44.763Z,5.72
2022-11-01T15:31:11.761Z,4.90
2022-11-01T15:33:39.232Z,5.75
2022-11-01T15:36:36.326Z,8.02
2022-11-01T15:39:16.717Z,7.10
2022-11-01T15:41:43.504Z,10.80
2022-11-01T15:44:28.193Z,7.65
2022-11-01T15:46:58.991Z,5.82
2022-11-01T15:49:47.067Z,7.57
2022-11-01T15:52:21.817Z,7.28
2022-11-01T15:55:06.999Z,7.05
2022-11-01T15:58:15.322Z,5.18
2022-11-01T16:00:47.615Z,2.67
2022-11-01T16:03:41.839Z,4.18
2022-11-01T16:06:17.721Z,8.40
2022-11-01T16:08:54.030Z,4.38
2022-11-01T16:11:25.640Z,7.28
2022-11-01T16:14:01.540Z,6.05
2022-11-01T16:16:29.199Z,3.92
2022-11-01T16:18:55.912Z,3.55
2022-11-01T16:21:28.958Z,5.05
2022-11-01T16:23:58.542Z,7.07
2022-11-01T16:26:25.601Z,3.00
2022-11-01T16:28:53.679Z,3.70
2022-11-01T16:31:26.544Z,4.75
2022-11-01T16:33:54.103Z,4.55
2022-11-01T16:36:20.887Z,4.32
2022-11-01T16:38:52.510Z,7.35
2022-11-01T16:41:22.740Z,6.57
2022-11-01T16:43:54.152Z,6.50
2022-11-01T16:46:24.463Z,6.10
2022-11-01T16:48:54.163Z,3.50
2022-11-01T16:51:25.125Z,3.72
2022-11-01T16:53:52.109Z,3.00
2022-11-01T16:56:40.987Z,3.78
2022-11-01T16:59:26.179Z,4.53
2022-11-01T17:01:55.831Z,6.60
2022-11-01T17:04:23.043Z,7.05
2022-11-01T17:06:50.646Z,4.57
2022-11-01T17:09:19.779Z,7.43
2022-11-01T17:11:51.619Z,10.23
2022-11-01T17:14:19.759Z,12.88
2022-11-01T17:16:48.140Z,7.85
2022-11-01T17:19:32.595Z,7.35
2022-11-01T17:22:02.952Z,8.98
2022-11-01T17:24:33.488Z,9.55
2022-11-01T17:27:05.356Z,7.95
2022-11-01T17:29:33.798Z,10.43
2022-11-01T17:32:01.267Z,14.30
2022-11-01T17:34:29.293Z,32.42
2022-11-01T17:36:57.652Z,21.20
2022-11-01T17:39:28.583Z,16.00
2022-11-01T17:41:55.709Z,10.27
2022-11-01T17:44:23.279Z,8.18
2022-11-01T17:46:50.064Z,14.32
2022-11-01T17:49:17.181Z,8.85
2022-11-01T17:51:44.018Z,10.13
2022-11-01T17:54:10.890Z,5.82
2022-11-01T17:56:38.156Z,8.23
2022-11-01T17:59:04.888Z,6.13
2022-11-01T18:01:32.474Z,10.20
2022-11-01T18:03:59.769Z,6.65
2022-11-01T18:06:27.226Z,23.38
2022-11-01T18:08:54.364Z,20.88
2022-11-01T18:11:30.231Z,28.83
2022-11-01T18:14:04.241Z,22.98
2022-11-01T18:17:00.541Z,26.10
2022-11-01T18:19:54.214Z,17.85
2022-11-01T18:22:29.850Z,13.95
2022-11-01T18:25:01.469Z,15.52
2022-11-01T18:27:37.709Z,13.05
2022-11-01T18:30:23.779Z,9.90
2022-11-01T18:33:26.742Z,10.98
2022-11-01T18:36:01.112Z,10.40
2022-11-01T18:38:41.519Z,9.25
2022-11-01T18:41:13.426Z,9.02
2022-11-01T18:43:40.484Z,8.60
2022-11-01T18:46:27.381Z,8.60
2022-11-01T18:49:01.253Z,8.13
2022-11-01T18:51:33.619Z,10.90
2022-11-01T18:54:09.648Z,10.57
2022-11-01T18:56:39.105Z,7.80
2022-11-01T18:59:30.160Z,9.63
2022-11-01T19:02:02.574Z,9.15
2022-11-01T19:04:31.640Z,7.53
2022-11-01T19:07:20.824Z,7.10
2022-11-01T19:09:56.892Z,7.47
2022-11-01T19:12:29.922Z,7.85
2022-11-01T19:15:02.194Z,11.13
2022-11-01T19:17:35.996Z,9.67
2022-11-01T19:20:05.537Z,7.78
2022-11-01T19:22:39.299Z,8.27
2022-11-01T19:25:25.810Z,12.07
2022-11-01T19:27:56.417Z,12.10
2022-11-01T19:30:29.106Z,7.07
2022-11-01T19:33:03.958Z,9.48
2022-11-01T19:35:30.866Z,11.77
2022-11-01T19:37:58.196Z,18.40
2022-11-01T19:40:31.015Z,10.68
2022-11-01T19:43:03.080Z,13.15
2022-11-01T19:45:33.414Z,11.85
2022-11-01T19:48:02.569Z,11.95
2022-11-01T19:50:56.101Z,7.97
2022-11-01T19:53:31.615Z,13.82
2022-11-01T19:56:06.805Z,13.77
2022-11-01T19:58:42.877Z,21.88
2022-11-01T20:01:25.701Z,15.93
2022-11-01T20:03:58.278Z,16.60
2022-11-01T20:06:32.711Z,16.50
2022-11-01T20:09:27.813Z,8.95
2022-11-01T20:11:56.123Z,14.35
2022-11-01T20:14:22.971Z,10.50
2022-11-01T20:16:52.426Z,10.70
2022-11-01T20:19:20.516Z,10.10
2022-11-01T20:21:52.478Z,10.25
2022-11-01T20:24:21.695Z,12.68
2022-11-01T20:26:48.700Z,12.23
2022-11-01T20:29:15.479Z,11.32
2022-11-01T20:31:42.235Z,10.23
2022-11-01T20:34:09.597Z,7.47
2022-11-01T20:36:36.318Z,12.07
2022-11-01T20:39:03.317Z,6.18
2022-11-01T20:41:33.233Z,8.80
2022-11-01T20:44:00.603Z,14.93
2022-11-01T20:46:39.079Z,9.02
2022-11-01T20:49:06.209Z,9.35
2022-11-01T20:51:33.121Z,16.30
2022-11-01T20:54:00.280Z,13.70
2022-11-01T20:56:27.064Z,12.98
2022-11-01T20:58:53.886Z,14.30
2022-11-01T21:01:22.119Z,9.05
2022-11-01T21:03:57.866Z,11.95
2022-11-01T21:06:31.647Z,14.68
2022-11-01T21:09:04.598Z,11.82
2022-11-01T21:11:44.086Z,17.33
2022-11-01T21:14:18.337Z,10.90
2022-11-01T21:19:55.817Z,10.57
2022-11-01T21:22:25.651Z,14.25
2022-11-01T21:24:52.688Z,15.25
2022-11-01T21:30:20.318Z,11.10
2022-11-01T21:32:50.163Z,9.32
2022-11-01T21:35:20.083Z,11.38
2022-11-01T21:37:51.384Z,13.23
2022-11-01T21:40:29.760Z,8.88
2022-11-01T21:42:58.310Z,15.73
2022-11-01T21:45:30.976Z,12.70
2022-11-01T21:48:15.673Z,9.75
2022-11-01T21:50:45.114Z,8.80
2022-11-01T21:53:11.774Z,11.35
2022-11-01T21:55:38.509Z,10.70
2022-11-01T21:58:05.138Z,14.05
2022-11-01T22:00:31.856Z,12.30
2022-11-01T22:02:58.497Z,10.82
2022-11-01T22:05:25.116Z,10.75
2022-11-01T22:07:51.755Z,8.75
2022-11-01T22:10:18.595Z,12.23
2022-11-01T22:12:45.264Z,10.02
2022-11-01T22:15:11.897Z,11.25
2022-11-01T22:17:38.552Z,5.75
2022-11-01T22:20:05.753Z,9.38
2022-11-01T22:22:32.420Z,6.97
2022-11-01T22:24:59.175Z,12.45
2022-11-01T22:27:25.831Z,10.38
2022-11-01T22:29:52.449Z,10.63
2022-11-01T22:32:19.091Z,8.98
2022-11-01T22:34:46.303Z,11.07
2022-11-01T22:37:13.537Z,12.10
2022-11-01T22:39:40.212Z,12.35
2022-11-01T22:42:14.817Z,14.48
2022-11-01T22:44:45.572Z,13.35
2022-11-01T22:47:30.663Z,10.10
2022-11-01T22:50:02.859Z,7.90
2022-11-01T22:52:35.054Z,13.88
2022-11-01T22:55:07.969Z,8.63
2022-11-01T22:57:40.511Z,9.52
2022-11-01T23:00:27.941Z,10.77
2022-11-01T23:03:22.668Z,9.70
2022-11-01T23:05:57.008Z,9.15
2022-11-01T23:08:26.216Z,8.63
2022-11-01T23:10:53.310Z,8.63
2022-11-01T23:13:48.086Z,10.15
2022-11-01T23:16:27.546Z,6.45
2022-11-01T23:18:57.729Z,10.73
2022-11-01T23:21:24.807Z,10.88
2022-11-01T23:23:51.516Z,13.15
2022-11-01T23:26:19.782Z,16.20
2022-11-01T23:28:49.738Z,8.75
2022-11-01T23:31:16.892Z,8.05
2022-11-01T23:33:46.104Z,10.48
2022-11-01T23:36:33.553Z,8.18
2022-11-01T23:39:03.650Z,10.70
2022-11-01T23:41:36.721Z,9.48
2022-11-01T23:44:30.078Z,7.88
2022-11-01T23:47:15.093Z,12.15
2022-11-01T23:49:42.774Z,7.40
2022-11-01T23:52:44.583Z,16.30
2022-11-01T23:55:31.469Z,12.60
2022-11-01T23:58:12.204Z,15.65
